In Rescue
 
Open Full Screen Window  High Contrast Mode
Wind Gusting 00 knots
06
July 24, 2024 6:37 PM EDT
Weather Information
Wind Direction
  320 °
Wind Speed
  06 kt (7 mph)
Wind Gust
  00 kt (0 mph)
Altimeter
30.10 in
Visibility
10 SM
Temperature
25° C
77° F
Dewpoint
17° C
63° F
Humidity
61%
1hr Rain Fall
00.00 in.
24hr Rain Fall
00.27 in.
Sky Condition
Scattered @ 7,500 ft
VFR

METAR KD95 242237Z AUTO 32006KT 10SM SCT075 25/17 A3010 RMK AO2 T02480168

FAA Disclaimer: The data displayed is for advisory purposes only and is not to be used for flight planning or operations.